Time;durP1;ratioP1;P1;durP2;ratioP2;P2;SDS_P1;SDS_P2;PMS_P1;PMS_P2;Temp;Humidity;BMP_temperature;BMP_pressure;BME280_temperature;BME280_humidity;BME280_pressure;Samples;Min_cycle;Max_cycle;Signal;HPM_P1;HPM_P2
2022/09/24 00:00:41;;;;;;;16.63;9.48;;;;;;;;;;5122783;27;20027;-74
2022/09/24 00:03:07;;;;;;;15.10;9.30;;;;;;;;;;5119353;27;20043;-74
2022/09/24 00:05:39;;;;;;;17.20;9.90;;;;;;;;;;5105801;27;20363;-74
2022/09/24 00:08:05;;;;;;;16.75;9.32;;;;;;;;;;5119766;27;20038;-73
2022/09/24 00:10:30;;;;;;;15.93;10.82;;;;;;;;;;5126561;27;20043;-73
2022/09/24 00:12:55;;;;;;;19.53;11.17;;;;;;;;;;5118837;27;20035;-73
2022/09/24 00:15:21;;;;;;;17.73;10.70;;;;;;;;;;5098790;27;20820;-73
2022/09/24 00:17:46;;;;;;;17.10;11.20;;;;;;;;;;5121062;27;20295;-75
2022/09/24 00:20:11;;;;;;;20.77;11.60;;;;;;;;;;5121098;27;20032;-75
2022/09/24 00:22:36;;;;;;;18.55;11.32;;;;;;;;;;5102019;28;20284;-75
2022/09/24 00:27:45;;;;;;;19.75;10.38;;;;;;;;;;5096495;28;20039;-75
2022/09/24 00:30:11;;;;;;;17.23;11.07;;;;;;;;;;5096278;28;20016;-74
2022/09/24 00:32:36;;;;;;;20.38;11.07;;;;;;;;;;5098464;28;20123;-75
2022/09/24 00:35:01;;;;;;;15.80;10.17;;;;;;;;;;5104259;28;20020;-75
2022/09/24 00:37:27;;;;;;;23.75;10.85;;;;;;;;;;5102193;28;20027;-75
2022/09/24 00:39:52;;;;;;;18.73;11.05;;;;;;;;;;5099255;28;20032;-75
2022/09/24 00:42:18;;;;;;;17.43;9.97;;;;;;;;;;5099700;28;20038;-75
2022/09/24 00:44:44;;;;;;;18.20;9.43;;;;;;;;;;5102069;28;20272;-75
2022/09/24 00:47:12;;;;;;;16.97;9.63;;;;;;;;;;5100210;28;20070;-76
2022/09/24 00:49:38;;;;;;;17.48;10.05;;;;;;;;;;5105408;28;20324;-74
2022/09/24 00:52:03;;;;;;;18.55;10.13;;;;;;;;;;5103552;28;20077;-74
2022/09/24 00:54:28;;;;;;;19.23;10.53;;;;;;;;;;5103180;28;20102;-74
2022/09/24 00:56:54;;;;;;;19.00;10.00;;;;;;;;;;5100516;28;20345;-71
2022/09/24 00:59:21;;;;;;;22.23;10.13;;;;;;;;;;5095419;28;20024;-69
2022/09/24 01:01:47;;;;;;;16.92;10.45;;;;;;;;;;5104328;28;20035;-70
2022/09/24 01:04:15;;;;;;;19.38;9.65;;;;;;;;;;5098762;28;20046;-71
2022/09/24 01:06:40;;;;;;;19.30;9.80;;;;;;;;;;5098055;28;20052;-71
2022/09/24 01:09:07;;;;;;;19.08;10.00;;;;;;;;;;5101550;27;20457;-71
2022/09/24 01:11:50;;;;;;;20.13;9.70;;;;;;;;;;5101027;28;20024;-72
2022/09/24 01:14:27;;;;;;;11.80;7.88;;;;;;;;;;5096836;28;20416;-70
2022/09/24 01:16:52;;;;;;;9.70;6.00;;;;;;;;;;5103954;28;20024;-70
2022/09/24 01:19:23;;;;;;;9.13;5.83;;;;;;;;;;5099800;28;20436;-69
2022/09/24 01:21:50;;;;;;;9.10;4.95;;;;;;;;;;5101473;28;20418;-71
2022/09/24 01:24:31;;;;;;;6.47;4.65;;;;;;;;;;5117741;27;20138;-71
2022/09/24 01:27:00;;;;;;;6.47;4.68;;;;;;;;;;5118928;27;20032;-70
2022/09/24 01:29:31;;;;;;;13.35;6.00;;;;;;;;;;5117710;27;20090;-71
2022/09/24 01:32:04;;;;;;;13.23;7.05;;;;;;;;;;5126089;27;20027;-74
2022/09/24 01:34:36;;;;;;;13.85;7.20;;;;;;;;;;5118806;27;20023;-75
2022/09/24 01:37:02;;;;;;;13.85;7.53;;;;;;;;;;5122561;27;20023;-74
2022/09/24 01:39:28;;;;;;;14.77;7.93;;;;;;;;;;5118582;27;20031;-75
2022/09/24 01:41:56;;;;;;;14.85;7.32;;;;;;;;;;5121638;27;20056;-75
2022/09/24 01:44:21;;;;;;;14.68;7.60;;;;;;;;;;5119236;27;20381;-75
2022/09/24 01:46:47;;;;;;;9.63;6.88;;;;;;;;;;5118393;27;20027;-75
2022/09/24 01:49:12;;;;;;;10.98;7.18;;;;;;;;;;5103256;27;20099;-75
2022/09/24 01:51:44;;;;;;;12.48;7.03;;;;;;;;;;5121301;27;20062;-75
2022/09/24 01:54:18;;;;;;;11.68;7.18;;;;;;;;;;5117942;27;20030;-75
2022/09/24 01:56:46;;;;;;;11.80;7.25;;;;;;;;;;5107422;27;20018;-75
2022/09/24 01:59:47;;;;;;;14.63;6.88;;;;;;;;;;5099083;27;21197;-75
2022/09/24 02:02:13;;;;;;;13.70;7.13;;;;;;;;;;5068046;28;20112;-75
2022/09/24 02:04:44;;;;;;;12.32;7.97;;;;;;;;;;5068594;28;20068;-75
2022/09/24 02:07:12;;;;;;;12.88;7.13;;;;;;;;;;5067989;28;20064;-75
2022/09/24 02:09:41;;;;;;;11.80;6.85;;;;;;;;;;5061597;28;20534;-75
2022/09/24 02:12:16;;;;;;;10.55;6.88;;;;;;;;;;5068310;28;20029;-75
2022/09/24 02:14:46;;;;;;;9.60;7.03;;;;;;;;;;5066729;28;20044;-75
2022/09/24 02:17:12;;;;;;;13.43;6.93;;;;;;;;;;5064964;28;20511;-75
2022/09/24 02:19:38;;;;;;;16.95;6.80;;;;;;;;;;5065896;28;20107;-74
2022/09/24 02:22:04;;;;;;;12.10;7.30;;;;;;;;;;5051176;28;20585;-75
2022/09/24 02:24:31;;;;;;;12.77;7.72;;;;;;;;;;5067881;28;20044;-75
2022/09/24 02:26:56;;;;;;;11.95;7.32;;;;;;;;;;5065746;28;20048;-75
2022/09/24 02:29:22;;;;;;;13.07;7.57;;;;;;;;;;5065506;28;20040;-75
2022/09/24 02:31:48;;;;;;;12.02;7.07;;;;;;;;;;5069880;28;20052;-75
2022/09/24 02:34:21;;;;;;;15.68;7.55;;;;;;;;;;5067533;28;20093;-75
2022/09/24 02:36:46;;;;;;;12.00;7.20;;;;;;;;;;5092986;28;20059;-75
2022/09/24 02:39:12;;;;;;;12.60;7.13;;;;;;;;;;5117225;27;20059;-75
2022/09/24 02:41:38;;;;;;;12.70;7.53;;;;;;;;;;5117030;27;20283;-76
2022/09/24 02:44:03;;;;;;;12.05;7.00;;;;;;;;;;5103698;27;20108;-75
2022/09/24 02:46:29;;;;;;;12.67;6.80;;;;;;;;;;5118385;27;20035;-75
2022/09/24 02:48:54;;;;;;;12.75;7.13;;;;;;;;;;5100919;27;21093;-74
2022/09/24 02:51:20;;;;;;;15.13;7.13;;;;;;;;;;5119492;27;20070;-75
2022/09/24 02:53:46;;;;;;;11.60;7.18;;;;;;;;;;5119353;28;20284;-75
2022/09/24 02:56:11;;;;;;;10.77;6.90;;;;;;;;;;5118635;27;20073;-75
2022/09/24 02:58:36;;;;;;;11.80;6.27;;;;;;;;;;5102445;27;20038;-76
2022/09/24 03:01:02;;;;;;;10.67;5.33;;;;;;;;;;5104753;28;20849;-76
2022/09/24 03:03:27;;;;;;;8.77;5.25;;;;;;;;;;5122526;27;20468;-76
2022/09/24 03:05:53;;;;;;;8.00;4.82;;;;;;;;;;5106235;28;20110;-75
2022/09/24 03:08:23;;;;;;;7.53;4.70;;;;;;;;;;5120325;28;20030;-75
2022/09/24 03:10:50;;;;;;;9.93;4.90;;;;;;;;;;5119743;28;20027;-75
2022/09/24 03:13:16;;;;;;;10.68;4.72;;;;;;;;;;5117547;28;20055;-71
2022/09/24 03:15:42;;;;;;;6.50;5.13;;;;;;;;;;5116887;28;20066;-71
2022/09/24 03:18:07;;;;;;;7.50;4.63;;;;;;;;;;5121889;28;20738;-70
2022/09/24 03:20:32;;;;;;;6.67;4.57;;;;;;;;;;5100613;28;20376;-71
2022/09/24 03:22:57;;;;;;;5.47;3.70;;;;;;;;;;5121618;28;20039;-71
2022/09/24 03:25:24;;;;;;;7.93;4.70;;;;;;;;;;5115999;28;20055;-71
2022/09/24 03:27:49;;;;;;;6.35;4.38;;;;;;;;;;5114312;28;20276;-71
2022/09/24 03:32:58;;;;;;;8.32;4.75;;;;;;;;;;5118385;28;20635;-71
2022/09/24 03:35:24;;;;;;;8.75;5.07;;;;;;;;;;5115055;28;20015;-71
2022/09/24 03:37:49;;;;;;;9.18;6.20;;;;;;;;;;5116173;28;20035;-71
2022/09/24 03:40:14;;;;;;;7.17;5.33;;;;;;;;;;5114686;28;20374;-70
2022/09/24 03:42:40;;;;;;;9.48;5.75;;;;;;;;;;5114502;28;20434;-71
2022/09/24 03:45:05;;;;;;;11.10;5.90;;;;;;;;;;5115493;28;20355;-71
2022/09/24 03:47:31;;;;;;;9.65;5.53;;;;;;;;;;5117855;28;20046;-70
2022/09/24 03:49:56;;;;;;;9.25;5.78;;;;;;;;;;5101320;28;20031;-70
2022/09/24 03:52:22;;;;;;;9.35;5.65;;;;;;;;;;5118922;28;20062;-70
2022/09/24 03:54:48;;;;;;;8.50;5.72;;;;;;;;;;5101294;28;20026;-75
2022/09/24 03:57:13;;;;;;;10.38;5.80;;;;;;;;;;5102109;28;20031;-75
2022/09/24 03:59:42;;;;;;;13.23;6.55;;;;;;;;;;5117871;28;20502;-75
2022/09/24 04:02:08;;;;;;;9.48;5.55;;;;;;;;;;5114213;28;20392;-75
2022/09/24 04:04:33;;;;;;;12.10;5.53;;;;;;;;;;5115755;28;20763;-75
2022/09/24 04:06:58;;;;;;;11.10;5.88;;;;;;;;;;5123878;27;20099;-75
2022/09/24 04:09:24;;;;;;;13.10;6.30;;;;;;;;;;5119044;27;20027;-75
2022/09/24 04:11:51;;;;;;;11.20;5.97;;;;;;;;;;5107317;28;20649;-75
2022/09/24 04:14:16;;;;;;;11.93;5.80;;;;;;;;;;5115680;27;20024;-75
2022/09/24 04:16:42;;;;;;;10.57;5.20;;;;;;;;;;5121519;27;20116;-75
2022/09/24 04:19:07;;;;;;;7.93;4.53;;;;;;;;;;5118275;27;20283;-75
2022/09/24 04:21:32;;;;;;;9.10;5.18;;;;;;;;;;5124131;27;20039;-75
2022/09/24 04:23:57;;;;;;;12.27;6.10;;;;;;;;;;5119154;27;20039;-76
2022/09/24 04:26:23;;;;;;;14.20;6.68;;;;;;;;;;5105643;27;20658;-75
2022/09/24 04:28:49;;;;;;;14.65;6.90;;;;;;;;;;5120794;27;20023;-75
2022/09/24 04:31:14;;;;;;;11.43;6.82;;;;;;;;;;5118078;27;20037;-76
2022/09/24 04:33:40;;;;;;;11.85;6.88;;;;;;;;;;5123869;27;20102;-75
2022/09/24 04:36:05;;;;;;;1999.90;458.35;;;;;;;;;;5119467;27;20103;-76
2022/09/24 04:38:30;;;;;;;33.88;18.75;;;;;;;;;;5117140;27;20099;-76
2022/09/24 04:41:03;;;;;;;14.23;7.15;;;;;;;;;;5102390;27;20525;-76
2022/09/24 04:43:28;;;;;;;12.05;5.93;;;;;;;;;;5121243;27;20025;-75
2022/09/24 04:45:55;;;;;;;11.70;5.80;;;;;;;;;;5120563;27;20031;-74
2022/09/24 04:48:22;;;;;;;11.68;6.30;;;;;;;;;;5118031;27;20736;-75
2022/09/24 04:50:48;;;;;;;10.10;5.15;;;;;;;;;;5119441;27;20114;-75
2022/09/24 04:53:13;;;;;;;8.07;5.60;;;;;;;;;;5115001;27;21528;-75
2022/09/24 04:55:40;;;;;;;9.18;5.78;;;;;;;;;;5109176;27;20452;-75
2022/09/24 04:58:05;;;;;;;10.68;5.15;;;;;;;;;;5102163;27;20388;-72
2022/09/24 05:00:32;;;;;;;9.60;5.05;;;;;;;;;;5117370;27;20027;-71
2022/09/24 05:02:58;;;;;;;7.47;5.15;;;;;;;;;;5104100;27;20031;-72
2022/09/24 05:05:23;;;;;;;10.80;5.65;;;;;;;;;;5121759;27;20024;-72
2022/09/24 05:07:50;;;;;;;14.05;6.97;;;;;;;;;;5108484;27;20385;-71
2022/09/24 05:10:15;;;;;;;10.25;6.57;;;;;;;;;;5125751;27;20388;-71
2022/09/24 05:12:40;;;;;;;15.13;7.55;;;;;;;;;;5108386;27;20046;-72
2022/09/24 05:15:06;;;;;;;13.27;7.37;;;;;;;;;;5119131;27;20030;-71
2022/09/24 05:17:31;;;;;;;15.23;8.05;;;;;;;;;;5115679;27;20287;-72
2022/09/24 05:19:58;;;;;;;13.63;7.93;;;;;;;;;;5116509;27;20059;-71
2022/09/24 05:22:24;;;;;;;16.80;8.02;;;;;;;;;;5115999;27;20027;-72
2022/09/24 05:24:50;;;;;;;13.20;7.63;;;;;;;;;;5119780;27;20031;-71
2022/09/24 05:27:15;;;;;;;15.03;8.37;;;;;;;;;;5114478;27;20141;-70
2022/09/24 05:29:42;;;;;;;19.37;9.47;;;;;;;;;;5122764;27;20084;-71
2022/09/24 05:32:08;;;;;;;19.08;9.73;;;;;;;;;;5116251;27;20288;-71
2022/09/24 05:34:34;;;;;;;18.35;9.60;;;;;;;;;;5122120;27;20088;-71
2022/09/24 05:37:00;;;;;;;21.35;9.95;;;;;;;;;;5120204;27;20015;-72
2022/09/24 05:39:25;;;;;;;18.38;9.35;;;;;;;;;;5118241;27;20039;-70
2022/09/24 05:41:50;;;;;;;16.13;8.80;;;;;;;;;;5110463;27;20023;-70
2022/09/24 05:44:20;;;;;;;20.73;10.13;;;;;;;;;;5122227;27;20037;-71
2022/09/24 05:46:45;;;;;;;;;;;;;;;;;;5117090;27;20767;-72
2022/09/24 05:49:11;;;;;;;14.00;7.90;;;;;;;;;;5116356;27;20076;-71
2022/09/24 05:51:36;;;;;;;17.95;8.77;;;;;;;;;;5116555;27;20461;-71
2022/09/24 05:54:02;;;;;;;13.05;8.38;;;;;;;;;;5122550;27;20525;-70
2022/09/24 05:56:27;;;;;;;21.27;8.38;;;;;;;;;;5120962;27;20465;-71
2022/09/24 05:58:52;;;;;;;14.52;9.02;;;;;;;;;;5116773;27;20050;-71
2022/09/24 06:01:17;;;;;;;17.13;8.48;;;;;;;;;;5124158;27;20022;-71
2022/09/24 06:03:43;;;;;;;15.57;8.23;;;;;;;;;;5119535;27;20079;-71
2022/09/24 06:06:08;;;;;;;18.25;8.68;;;;;;;;;;5119765;27;20027;-70
2022/09/24 06:08:33;;;;;;;14.85;8.40;;;;;;;;;;5116755;27;20440;-72
2022/09/24 06:10:59;;;;;;;19.88;10.18;;;;;;;;;;5118916;27;20035;-72
2022/09/24 06:13:25;;;;;;;19.02;10.05;;;;;;;;;;5121066;27;20492;-72
2022/09/24 06:15:50;;;;;;;18.25;10.20;;;;;;;;;;5115483;27;20019;-73
2022/09/24 06:18:15;;;;;;;16.60;9.23;;;;;;;;;;5116883;27;20024;-74
2022/09/24 06:20:40;;;;;;;15.50;9.18;;;;;;;;;;5119669;27;20275;-73
2022/09/24 06:23:06;;;;;;;16.48;9.05;;;;;;;;;;5107267;28;20101;-73
2022/09/24 06:25:31;;;;;;;27.33;9.23;;;;;;;;;;5103331;28;20027;-73
2022/09/24 06:28:01;;;;;;;14.77;9.05;;;;;;;;;;5099119;28;20042;-71
2022/09/24 06:30:26;;;;;;;15.57;9.13;;;;;;;;;;5097521;28;20035;-72
2022/09/24 06:32:52;;;;;;;14.30;8.50;;;;;;;;;;5102440;28;20023;-72
2022/09/24 06:35:19;;;;;;;13.45;8.52;;;;;;;;;;5098253;28;20280;-72
2022/09/24 06:37:44;;;;;;;13.00;7.90;;;;;;;;;;5097263;28;20035;-72
2022/09/24 06:40:09;;;;;;;11.23;6.97;;;;;;;;;;5098226;28;20480;-70
2022/09/24 06:42:35;;;;;;;10.15;7.03;;;;;;;;;;5096573;28;20288;-73
2022/09/24 06:45:00;;;;;;;13.63;6.57;;;;;;;;;;5096270;28;20073;-72
2022/09/24 06:47:25;;;;;;;11.10;7.10;;;;;;;;;;5095591;28;20726;-73
2022/09/24 06:49:50;;;;;;;11.37;7.33;;;;;;;;;;5091676;28;20282;-73
2022/09/24 06:52:16;;;;;;;11.93;8.18;;;;;;;;;;5093642;28;20032;-73
2022/09/24 06:54:41;;;;;;;12.80;7.90;;;;;;;;;;5093522;28;20032;-70
2022/09/24 06:57:06;;;;;;;13.10;7.55;;;;;;;;;;5096684;28;20355;-69
2022/09/24 06:59:32;;;;;;;14.05;7.80;;;;;;;;;;5106085;27;20043;-69
2022/09/24 07:01:58;;;;;;;11.30;7.63;;;;;;;;;;5097840;28;20043;-72
2022/09/24 07:04:23;;;;;;;12.25;8.23;;;;;;;;;;5096110;28;20063;-71
2022/09/24 07:09:32;;;;;;;12.75;8.40;;;;;;;;;;5101742;28;20552;-70
2022/09/24 07:12:00;;;;;;;12.60;8.85;;;;;;;;;;5106925;28;20024;-70
2022/09/24 07:14:25;;;;;;;16.35;9.52;;;;;;;;;;5097822;28;20024;-76
2022/09/24 07:16:52;;;;;;;14.52;8.93;;;;;;;;;;5100058;28;20028;-70
2022/09/24 07:19:18;;;;;;;14.95;8.75;;;;;;;;;;5097895;28;20106;-71
2022/09/24 07:21:43;;;;;;;15.90;9.60;;;;;;;;;;5099016;28;20751;-71
2022/09/24 07:24:08;;;;;;;15.20;9.40;;;;;;;;;;5110422;28;20286;-71
2022/09/24 07:26:33;;;;;;;14.37;9.13;;;;;;;;;;5120798;28;20023;-71
2022/09/24 07:28:58;;;;;;;15.10;8.67;;;;;;;;;;5116200;28;20016;-70
2022/09/24 07:31:25;;;;;;;17.75;10.20;;;;;;;;;;5102923;28;20115;-71
2022/09/24 07:33:51;;;;;;;12.73;8.95;;;;;;;;;;5113402;28;20027;-72
2022/09/24 07:36:16;;;;;;;14.40;9.93;;;;;;;;;;5118845;28;20015;-70
2022/09/24 07:38:41;;;;;;;14.20;10.03;;;;;;;;;;5118331;28;20035;-70
2022/09/24 07:41:08;;;;;;;15.32;9.63;;;;;;;;;;5119036;27;20112;-70
2022/09/24 07:43:33;;;;;;;13.95;9.35;;;;;;;;;;5119770;27;20031;-70
2022/09/24 07:45:58;;;;;;;16.83;9.83;;;;;;;;;;5118045;27;20019;-70
2022/09/24 07:48:24;;;;;;;13.73;9.77;;;;;;;;;;5122451;27;20732;-73
2022/09/24 07:50:50;;;;;;;13.87;9.93;;;;;;;;;;5108345;27;20267;-71
2022/09/24 07:53:15;;;;;;;17.95;9.65;;;;;;;;;;5120692;27;20026;-71
2022/09/24 07:55:41;;;;;;;15.48;9.50;;;;;;;;;;5121360;27;20020;-71
2022/09/24 07:58:12;;;;;;;17.90;10.15;;;;;;;;;;5121648;27;20481;-71
2022/09/24 08:00:37;;;;;;;13.48;9.52;;;;;;;;;;5120364;27;20035;-71
2022/09/24 08:03:04;;;;;;;14.40;10.53;;;;;;;;;;5120241;27;20029;-72
2022/09/24 08:05:29;;;;;;;13.43;9.60;;;;;;;;;;5122880;27;20278;-71
2022/09/24 08:07:56;;;;;;;13.27;10.00;;;;;;;;;;5116366;27;20065;-72
2022/09/24 08:10:22;;;;;;;14.90;10.10;;;;;;;;;;5128465;27;20525;-71
2022/09/24 08:12:47;;;;;;;14.35;10.13;;;;;;;;;;5126345;27;20031;-70
2022/09/24 08:15:12;;;;;;;15.25;10.77;;;;;;;;;;5123282;27;20062;-69
2022/09/24 08:17:37;;;;;;;14.35;10.05;;;;;;;;;;5126865;27;20027;-70
2022/09/24 08:20:03;;;;;;;14.37;10.60;;;;;;;;;;5124433;27;20019;-70
2022/09/24 08:22:28;;;;;;;14.93;10.23;;;;;;;;;;5118789;27;20275;-70
2022/09/24 08:24:56;;;;;;;12.98;8.70;;;;;;;;;;5118988;27;20062;-70
2022/09/24 08:27:22;;;;;;;14.18;9.10;;;;;;;;;;5122135;27;20487;-70
2022/09/24 08:29:47;;;;;;;13.35;9.38;;;;;;;;;;5122923;27;20019;-70
2022/09/24 08:32:13;;;;;;;11.87;8.67;;;;;;;;;;5121729;27;20468;-69
2022/09/24 08:34:39;;;;;;;15.45;8.60;;;;;;;;;;5123556;27;20019;-70
2022/09/24 08:37:05;;;;;;;10.50;7.82;;;;;;;;;;5120249;27;20102;-70
2022/09/24 08:39:31;;;;;;;12.57;8.65;;;;;;;;;;5122779;27;20578;-70
2022/09/24 08:42:01;;;;;;;11.15;8.15;;;;;;;;;;5119711;27;20024;-69
2022/09/24 08:47:22;;;;;;;10.45;7.97;;;;;;;;;;5122429;27;20069;-70
2022/09/24 08:49:50;;;;;;;12.52;8.70;;;;;;;;;;5117338;27;20034;-69
2022/09/24 08:52:31;;;;;;;10.30;7.70;;;;;;;;;;5119148;27;20032;-69
2022/09/24 08:55:01;;;;;;;10.77;7.53;;;;;;;;;;5123288;27;20035;-70
2022/09/24 08:57:26;;;;;;;9.18;6.68;;;;;;;;;;5125574;27;20140;-70
2022/09/24 08:59:52;;;;;;;10.90;7.72;;;;;;;;;;5119189;27;20023;-69
2022/09/24 09:02:35;;;;;;;9.70;7.10;;;;;;;;;;5122770;27;20035;-72
2022/09/24 09:05:29;;;;;;;10.18;6.82;;;;;;;;;;5119704;27;20098;-70
2022/09/24 09:07:58;;;;;;;11.52;6.90;;;;;;;;;;5114258;27;20069;-71
2022/09/24 09:10:29;;;;;;;8.05;5.85;;;;;;;;;;5121635;27;20098;-72
2022/09/24 09:13:01;;;;;;;7.90;6.35;;;;;;;;;;5119399;27;20028;-69
2022/09/24 09:15:28;;;;;;;8.20;6.43;;;;;;;;;;5124348;27;20496;-71
2022/09/24 09:17:57;;;;;;;9.25;6.30;;;;;;;;;;5104417;27;20047;-71
2022/09/24 09:20:30;;;;;;;8.73;6.55;;;;;;;;;;5122875;27;20072;-71
2022/09/24 09:22:57;;;;;;;8.43;6.25;;;;;;;;;;5125309;27;20054;-71
2022/09/24 09:25:24;;;;;;;8.55;5.50;;;;;;;;;;5120585;27;20497;-72
2022/09/24 09:28:00;;;;;;;7.90;5.43;;;;;;;;;;5119029;27;20027;-68
2022/09/24 09:30:31;;;;;;;10.23;6.32;;;;;;;;;;5118696;27;20485;-68
2022/09/24 09:33:29;;;;;;;8.00;5.60;;;;;;;;;;5120868;27;20106;-68
2022/09/24 09:35:55;;;;;;;9.73;6.32;;;;;;;;;;5083321;28;20051;-68
2022/09/24 09:38:26;;;;;;;10.05;6.15;;;;;;;;;;5083235;28;20597;-68
2022/09/24 09:41:01;;;;;;;8.73;6.25;;;;;;;;;;5070304;28;20032;-67
2022/09/24 09:43:27;;;;;;;8.05;5.38;;;;;;;;;;5086920;28;20020;-68
2022/09/24 09:45:52;;;;;;;10.90;5.00;;;;;;;;;;5082866;28;20090;-67
2022/09/24 09:48:20;;;;;;;7.35;5.40;;;;;;;;;;5082738;28;20111;-67
2022/09/24 09:50:50;;;;;;;8.52;5.38;;;;;;;;;;5083596;28;20032;-68
2022/09/24 09:53:22;;;;;;;7.13;5.65;;;;;;;;;;5082678;28;20051;-71
2022/09/24 09:55:58;;;;;;;10.40;5.80;;;;;;;;;;5078626;28;20028;-68
2022/09/24 09:58:28;;;;;;;6.43;4.85;;;;;;;;;;5086196;28;20125;-69
2022/09/24 10:01:22;;;;;;;9.40;5.07;;;;;;;;;;5081605;28;20059;-67
2022/09/24 10:03:51;;;;;;;5.60;4.50;;;;;;;;;;5068835;28;20101;-68
2022/09/24 10:06:24;;;;;;;6.50;4.30;;;;;;;;;;5083776;28;20430;-68
2022/09/24 10:08:49;;;;;;;6.63;4.10;;;;;;;;;;5065950;28;20033;-68
2022/09/24 10:11:15;;;;;;;6.17;4.07;;;;;;;;;;5094604;27;20050;-68
2022/09/24 10:13:40;;;;;;;5.07;3.50;;;;;;;;;;5120201;27;20307;-72
2022/09/24 10:16:08;;;;;;;5.03;3.28;;;;;;;;;;5109061;27;20087;-72
2022/09/24 10:18:33;;;;;;;3.92;2.88;;;;;;;;;;5123007;27;20027;-72
2022/09/24 10:21:01;;;;;;;5.33;2.80;;;;;;;;;;5117117;27;20030;-72
2022/09/24 10:23:40;;;;;;;3.00;2.13;;;;;;;;;;5120551;27;20039;-71
2022/09/24 10:26:06;;;;;;;4.97;2.75;;;;;;;;;;5116923;27;20035;-71
2022/09/24 10:31:21;;;;;;;3.00;2.30;;;;;;;;;;5121507;27;20038;-71
2022/09/24 10:33:48;;;;;;;3.28;2.30;;;;;;;;;;5113936;27;20080;-72
2022/09/24 10:36:16;;;;;;;5.85;2.20;;;;;;;;;;5109007;27;20469;-71
2022/09/24 10:38:42;;;;;;;3.80;2.33;;;;;;;;;;5118391;27;20508;-71
2022/09/24 10:41:20;;;;;;;2.97;2.10;;;;;;;;;;5119439;27;20034;-71
2022/09/24 10:43:49;;;;;;;2.40;1.88;;;;;;;;;;5107620;27;20028;-70
2022/09/24 10:46:20;;;;;;;4.63;1.90;;;;;;;;;;5102292;27;20015;-73
2022/09/24 10:48:46;;;;;;;4.80;1.80;;;;;;;;;;5111499;27;20039;-70
2022/09/24 10:51:17;;;;;;;5.63;1.90;;;;;;;;;;5116355;27;20052;-72
2022/09/24 10:53:45;;;;;;;4.50;1.70;;;;;;;;;;5120403;27;20111;-71
2022/09/24 10:56:10;;;;;;;2.90;2.30;;;;;;;;;;5121067;27;20023;-72
2022/09/24 10:58:52;;;;;;;3.70;2.23;;;;;;;;;;5115670;27;20027;-71
2022/09/24 11:01:23;;;;;;;2.70;2.20;;;;;;;;;;5117329;28;20279;-71
2022/09/24 11:03:52;;;;;;;2.60;1.98;;;;;;;;;;5119443;28;20031;-71
2022/09/24 11:06:36;;;;;;;3.13;2.00;;;;;;;;;;5114394;27;20447;-71
2022/09/24 11:09:26;;;;;;;3.47;2.10;;;;;;;;;;5102370;28;20031;-71
2022/09/24 11:12:04;;;;;;;2.33;2.10;;;;;;;;;;5121759;28;20035;-71
2022/09/24 11:14:47;;;;;;;2.80;2.05;;;;;;;;;;5119847;28;20500;-71
2022/09/24 11:17:22;;;;;;;3.47;2.05;;;;;;;;;;5124659;27;20031;-71
2022/09/24 11:19:47;;;;;;;2.33;1.90;;;;;;;;;;5119824;27;20039;-71
2022/09/24 11:22:14;;;;;;;3.23;1.90;;;;;;;;;;5129622;27;20461;-70
2022/09/24 11:24:47;;;;;;;3.80;1.90;;;;;;;;;;5124134;27;20275;-71
2022/09/24 11:27:15;;;;;;;3.13;1.88;;;;;;;;;;5121990;27;20115;-70
2022/09/24 11:29:46;;;;;;;3.50;2.05;;;;;;;;;;5124028;27;20430;-71
2022/09/24 11:32:20;;;;;;;3.65;1.90;;;;;;;;;;5122827;27;20027;-71
2022/09/24 11:34:55;;;;;;;2.30;1.88;;;;;;;;;;5111310;27;20022;-71
2022/09/24 11:37:20;;;;;;;3.58;2.08;;;;;;;;;;5120262;27;20043;-71
2022/09/24 11:39:58;;;;;;;4.53;1.93;;;;;;;;;;5127314;27;20476;-71
2022/09/24 11:42:27;;;;;;;3.03;2.30;;;;;;;;;;5124311;27;20019;-72
2022/09/24 11:45:12;;;;;;;2.40;2.00;;;;;;;;;;5120462;27;20031;-71
2022/09/24 11:47:45;;;;;;;2.40;2.00;;;;;;;;;;5125520;27;20023;-72
2022/09/24 11:50:20;;;;;;;4.38;1.75;;;;;;;;;;5126392;27;20056;-71
2022/09/24 11:53:00;;;;;;;1.90;1.60;;;;;;;;;;5110591;27;20781;-71
2022/09/24 11:55:31;;;;;;;2.70;1.77;;;;;;;;;;5128050;27;20019;-71
2022/09/24 11:58:03;;;;;;;2.42;1.60;;;;;;;;;;5107239;27;20049;-72
2022/09/24 12:00:32;;;;;;;2.50;1.60;;;;;;;;;;5123826;27;20016;-71
2022/09/24 12:03:05;;;;;;;4.00;1.80;;;;;;;;;;5125617;27;20028;-71
2022/09/24 12:05:34;;;;;;;2.20;1.65;;;;;;;;;;5115039;27;20023;-72
2022/09/24 12:08:02;;;;;;;3.50;1.67;;;;;;;;;;5116044;27;20051;-71
2022/09/24 12:10:33;;;;;;;2.88;2.15;;;;;;;;;;5125003;27;20031;-71
2022/09/24 12:13:17;;;;;;;2.75;1.85;;;;;;;;;;5123080;27;20117;-70
2022/09/24 12:15:48;;;;;;;4.10;1.80;;;;;;;;;;5106998;27;20066;-70
2022/09/24 12:18:25;;;;;;;2.70;2.00;;;;;;;;;;5107630;27;20035;-72
2022/09/24 12:20:57;;;;;;;4.68;2.00;;;;;;;18.47;nan;100747.75;5125005;27;20031;-72
2022/09/24 12:23:30;;;;;;;3.60;2.17;;;;;;;18.54;nan;100776.81;5123144;27;20501;-71
2022/09/24 12:26:04;;;;;;;2.45;1.80;;;;;;;18.57;nan;100789.63;5121992;27;20063;-71
2022/09/24 12:34:58;;;;;;;2.20;1.88;;;;;;;18.48;nan;100768.03;5124478;27;20054;-72
2022/09/24 12:37:30;;;;;;;2.13;1.70;;;;;;;18.49;nan;100755.50;5059598;28;20028;-72
2022/09/24 12:40:16;;;;;;;2.50;1.98;;;;;;;18.52;nan;100757.63;5065803;28;20044;-72
2022/09/24 12:42:48;;;;;;;2.55;1.88;;;;;;;18.57;nan;100751.50;5063262;28;20032;-73
2022/09/24 12:45:18;;;;;;;5.25;2.08;;;;;;;18.55;nan;100706.41;5068534;28;20066;-72
2022/09/24 12:48:04;;;;;;;2.83;1.80;;;;;;;18.62;nan;100815.50;5060436;28;20533;-71
2022/09/24 12:50:34;;;;;;;2.33;1.80;;;;;;;18.60;nan;100773.06;5068142;28;20127;-72
2022/09/24 12:53:00;;;;;;;3.50;1.85;;;;;;;18.69;nan;100802.69;5068862;28;20602;-72
2022/09/24 12:55:29;;;;;;;3.17;2.10;;;;;;;18.69;nan;100784.78;5068974;28;20112;-72
2022/09/24 12:57:59;;;;;;;2.70;1.80;;;;;;;18.47;nan;100771.75;5066815;28;20127;-71
2022/09/24 13:00:31;;;;;;;2.55;1.80;;;;;;;18.76;nan;100789.06;5064345;28;20037;-72
2022/09/24 13:02:57;;;;;;;2.97;1.90;;;;;;;18.67;nan;100744.25;5058857;28;20453;-72
2022/09/24 13:05:26;;;;;;;2.72;1.63;;;;;;;18.68;nan;100766.41;5066281;28;20040;-72
2022/09/24 13:08:15;;;;;;;1.80;1.57;;;;;;;18.67;nan;100754.13;5065104;28;20652;-70
2022/09/24 13:11:04;;;;;;;2.40;1.73;;;;;;;18.67;nan;100746.13;5067404;27;20051;-70
2022/09/24 13:13:34;;;;;;;4.25;1.67;;;;;;;18.68;nan;100747.75;5106707;27;20504;-70
2022/09/24 13:16:03;;;;;;;2.25;1.80;;;;;;;18.69;nan;100758.13;5120261;27;20028;-70
2022/09/24 13:18:32;;;;;;;2.20;1.50;;;;;;;18.70;nan;100738.41;5123421;27;20033;-70
2022/09/24 13:21:08;;;;;;;2.17;1.50;;;;;;;18.67;nan;100760.25;5117695;27;20039;-71
2022/09/24 13:23:36;;;;;;;1.90;1.58;;;;;;;;;;5124962;27;20039;-70
2022/09/24 13:26:12;;;;;;;1.85;1.40;;;;;;;18.78;nan;100747.75;5122352;27;20491;-71
2022/09/24 13:28:46;;;;;;;2.65;1.30;;;;;;;18.81;nan;100773.06;5120812;27;20464;-71
2022/09/24 13:31:20;;;;;;;2.10;1.70;;;;;;;18.82;nan;100730.13;5120045;27;20092;-71
2022/09/24 13:33:48;;;;;;;2.25;1.70;;;;;;;;;;5122250;27;20377;-70
2022/09/24 13:36:32;;;;;;;1.67;1.30;;;;;;;18.80;nan;100702.13;5119915;27;20381;-71
2022/09/24 13:39:13;;;;;;;1.40;1.20;;;;;;;18.84;nan;100714.66;5119631;27;20028;-71
2022/09/24 13:41:58;;;;;;;2.22;1.50;;;;;;;18.84;nan;100721.81;5118755;27;20027;-71
2022/09/24 13:44:56;;;;;;;2.13;1.48;;;;;;;18.83;nan;100712.25;5121367;27;20046;-71
2022/09/24 13:47:29;;;;;;;3.15;1.48;;;;;;;;;;5109040;27;20477;-71
2022/09/24 13:50:06;;;;;;;2.72;1.33;;;;;;;18.84;nan;100719.16;5121977;27;20063;-71
2022/09/24 13:52:34;;;;;;;1.40;1.20;;;;;;;;;;5119862;27;20050;-71
2022/09/24 13:55:09;;;;;;;1.87;1.27;;;;;;;18.69;nan;100669.28;5119088;27;20023;-71
2022/09/24 13:57:43;;;;;;;2.85;1.50;;;;;;;18.69;nan;100674.63;5118935;27;20028;-71
2022/09/24 14:00:15;;;;;;;3.80;1.65;;;;;;;18.64;nan;100688.78;5117656;27;20110;-71
2022/09/24 14:02:45;;;;;;;1.70;1.20;;;;;;;18.38;nan;100671.25;5119811;27;20508;-71
2022/09/24 14:05:15;;;;;;;1.77;1.63;;;;;;;;;;5124320;27;20354;-71
2022/09/24 14:07:40;;;;;;;5.70;3.05;;;;;;;18.55;nan;100681.63;5114753;27;20113;-71
2022/09/24 14:10:12;;;;;;;7.03;3.22;;;;;;;18.63;nan;100707.75;5119284;27;20130;-71
2022/09/24 14:12:38;;;;;;;3.33;2.30;;;;;;;18.62;nan;100680.25;5105518;27;20472;-71
2022/09/24 14:15:08;;;;;;;2.00;1.40;;;;;;;;;;5120450;27;20027;-70
2022/09/24 14:17:34;;;;;;;2.63;1.25;;;;;;;18.63;nan;100689.88;5116519;27;20039;-71
2022/09/24 14:19:59;;;;;;;4.97;1.77;;;;;;;18.55;nan;100685.06;5121900;27;20058;-71
2022/09/24 14:22:33;;;;;;;1.60;1.30;;;;;;;18.55;nan;100692.28;5119871;27;20020;-71
2022/09/24 14:25:19;;;;;;;4.90;1.40;;;;;;;18.54;nan;100686.16;5122935;27;20180;-71
2022/09/24 14:27:46;;;;;;;1.50;1.40;;;;;;;;;;5106075;27;20035;-71
2022/09/24 14:30:20;;;;;;;1.90;1.38;;;;;;;18.56;nan;100691.22;5116026;27;20020;-71
2022/09/24 14:33:07;;;;;;;4.10;1.50;;;;;;;;;;5120773;27;20558;-70
2022/09/24 14:35:35;;;;;;;1.85;1.40;;;;;;;18.52;nan;100676.81;5114985;27;20027;-71